createdAt,value
2024-02-05T00:00:02.281Z,97330.2
2024-02-05T00:01:02.077Z,97338.04
2024-02-05T00:02:02.349Z,97335.4
2024-02-05T00:03:02.719Z,97335.23
2024-02-05T00:04:02.993Z,97336.51
2024-02-05T00:05:03.504Z,97335.95
2024-02-05T00:06:04.162Z,97331.45
2024-02-05T00:07:04.429Z,97333.02
2024-02-05T00:08:04.983Z,97333.72
2024-02-05T00:09:04.588Z,97331.67
2024-02-05T00:10:05.539Z,97328.45
2024-02-05T00:11:05.222Z,97328.54
2024-02-05T00:12:06.261Z,97329.24
2024-02-05T00:13:06.023Z,97324.84
2024-02-05T00:14:06.092Z,97321.57
2024-02-05T00:15:08.363Z,97325.52
2024-02-05T00:16:07.482Z,97322.81
2024-02-05T00:17:07.196Z,97329.22
2024-02-05T00:18:07.952Z,97327.16
2024-02-05T00:19:07.968Z,97327.74
2024-02-05T00:20:09.479Z,97332.14
2024-02-05T00:21:08.582Z,97331.15
2024-02-05T00:22:09.517Z,97329.63
2024-02-05T00:23:09.127Z,97326.73
2024-02-05T00:24:09.575Z,97323.95
2024-02-05T00:25:10.685Z,97319.2
2024-02-05T00:26:10.136Z,97311.5
2024-02-05T00:27:11.085Z,97318.41
2024-02-05T00:28:12.120Z,97319.23
2024-02-05T00:29:11.282Z,97314.05
2024-02-05T00:30:12.309Z,97311.19
2024-02-05T00:31:11.829Z,97311.06
2024-02-05T00:32:12.126Z,97303.69
2024-02-05T00:33:12.549Z,97293.75
2024-02-05T00:34:13.257Z,97295.62
2024-02-05T00:35:13.410Z,97296.41
2024-02-05T00:36:13.583Z,97291.55
2024-02-05T00:37:13.900Z,97287.7
2024-02-05T00:38:14.160Z,97275.5
2024-02-05T00:39:14.741Z,97281.19
2024-02-05T00:40:15.344Z,97281.88
2024-02-05T00:41:15.155Z,97289.59
2024-02-05T00:42:15.552Z,97293.6
2024-02-05T00:43:15.983Z,97295.26
2024-02-05T00:44:16.394Z,97296.45
2024-02-05T00:45:17.214Z,97295.48
2024-02-05T00:46:24.473Z,97297.96
2024-02-05T00:47:17.239Z,97302.73
2024-02-05T00:48:17.477Z,97298.56
2024-02-05T00:49:17.847Z,97298.91
2024-02-05T00:50:18.090Z,97296.05
2024-02-05T00:51:18.498Z,97296.03
2024-02-05T00:52:18.801Z,97296.11
2024-02-05T00:53:19.091Z,97297.86
2024-02-05T00:54:19.441Z,97301.14
2024-02-05T00:55:20.127Z,97308.33
2024-02-05T00:56:19.997Z,97309.45
2024-02-05T00:57:20.482Z,97307.08
2024-02-05T00:58:21.249Z,97302.88
2024-02-05T00:59:20.999Z,97300.73
2024-02-05T01:00:21.597Z,97306.11
2024-02-05T01:01:21.934Z,97304.48
2024-02-05T01:02:22.041Z,97304.77
2024-02-05T01:03:22.509Z,97308.23
2024-02-05T01:04:22.800Z,97306.02
2024-02-05T01:05:23.260Z,97303.12
2024-02-05T01:06:23.786Z,97306.8
2024-02-05T01:07:23.819Z,97298.48
2024-02-05T01:08:24.046Z,97302.2
2024-02-05T01:09:24.344Z,97306.16
2024-02-05T01:10:24.778Z,97303.95
2024-02-05T01:11:25.093Z,97306.87
2024-02-05T01:12:25.512Z,97307.17
2024-02-05T01:13:25.687Z,97304.22
2024-02-05T01:14:25.976Z,97310.05
2024-02-05T01:15:26.469Z,97307.66
2024-02-05T01:16:26.706Z,97309.36
2024-02-05T01:17:27.058Z,97313.45
2024-02-05T01:18:27.588Z,97310.06
2024-02-05T01:19:27.752Z,97311.08
2024-02-05T01:20:27.998Z,97316
2024-02-05T01:21:28.159Z,97313.06
2024-02-05T01:22:28.992Z,97312.62
2024-02-05T01:23:29.031Z,97319.64
2024-02-05T01:24:29.402Z,97318.71
2024-02-05T01:25:29.685Z,97315.23
2024-02-05T01:26:29.972Z,97321.81
2024-02-05T01:27:30.252Z,97313.7
2024-02-05T01:28:31.021Z,97312.59
2024-02-05T01:29:31.062Z,97306.91
2024-02-05T01:30:31.183Z,97305.98
2024-02-05T01:31:31.524Z,97307.7
2024-02-05T01:32:31.921Z,97303.59
2024-02-05T01:33:32.484Z,97302
2024-02-05T01:34:32.796Z,97303.94
2024-02-05T01:35:33.048Z,97305.36
2024-02-05T01:36:33.345Z,97303.59
2024-02-05T01:37:33.649Z,97302.2
2024-02-05T01:38:34.019Z,97308.89
2024-02-05T01:39:34.274Z,97302
2024-02-05T01:40:34.642Z,97305.77
2024-02-05T01:41:35.049Z,97304.09
2024-02-05T01:42:35.321Z,97305.7
2024-02-05T01:43:35.630Z,97312.27
2024-02-05T01:44:35.957Z,97305.78
2024-02-05T01:45:36.628Z,97308.97
2024-02-05T01:46:38.619Z,97307.69
2024-02-05T01:47:39.162Z,97306.27
2024-02-05T01:48:38.506Z,97304.56
2024-02-05T01:49:38.605Z,97307.08
2024-02-05T01:50:39.226Z,97308.52
2024-02-05T01:51:42.806Z,97313.22
2024-02-05T01:52:45.240Z,97309.31
2024-02-05T01:53:43.288Z,97311
2024-02-05T01:54:44.010Z,97312.78
2024-02-05T01:55:45.131Z,97310.83
2024-02-05T01:56:45.761Z,97312.59
2024-02-05T01:57:45.272Z,97312.84
2024-02-05T01:58:44.648Z,97316.8
2024-02-05T01:59:44.960Z,97313.82
2024-02-05T02:00:45.503Z,97315.28
2024-02-05T02:01:45.616Z,97315.95
2024-02-05T02:02:46.469Z,97320.92
2024-02-05T02:03:51.064Z,97317.47
2024-02-05T02:04:48.903Z,97317.28
2024-02-05T02:05:49.622Z,97315.95
2024-02-05T02:06:52.416Z,97312.3
2024-02-05T02:07:52.013Z,97309.34
2024-02-05T02:08:51.371Z,97306.73
2024-02-05T02:09:51.102Z,97308.86
2024-02-05T02:10:50.931Z,97308.81
2024-02-05T02:11:51.284Z,97314.12
2024-02-05T02:12:51.723Z,97310.55
2024-02-05T02:13:52.026Z,97306.66
2024-02-05T02:14:52.216Z,97306.06
2024-02-05T02:15:53.599Z,97305.68
2024-02-05T02:16:53.045Z,97307.05
2024-02-05T02:17:59.705Z,97308.85
2024-02-05T02:19:00.409Z,97308.8
2024-02-05T02:19:58.775Z,97308.02
2024-02-05T02:21:00.249Z,97304.46
2024-02-05T02:24:02.252Z,97306.08
2024-02-05T02:25:01.710Z,97310.8
2024-02-05T02:26:02.022Z,97307.69
2024-02-05T02:27:01.210Z,97306.77
2024-02-05T02:28:01.686Z,97307.16
2024-02-05T02:29:02.242Z,97310.5
2024-02-05T02:30:03.698Z,97304.13
2024-02-05T02:31:03.438Z,97309.15
2024-02-05T02:34:19.704Z,97307.98
2024-02-05T02:35:24.558Z,97307.88
2024-02-05T02:36:25.230Z,97309.41
2024-02-05T02:37:20.377Z,97305.04
2024-02-05T02:40:25.637Z,97303.81
2024-02-05T02:41:27.568Z,97301.59
2024-02-05T02:42:26.563Z,97303.64
2024-02-05T02:43:27.627Z,97302.08
2024-02-05T02:44:28.009Z,97296.18
2024-02-05T02:45:26.833Z,97298.86
2024-02-05T02:46:27.443Z,97296.41
2024-02-05T02:47:26.768Z,97294.34
2024-02-05T02:48:26.978Z,97294.28
2024-02-05T02:49:27.262Z,97290.24
2024-02-05T02:50:27.616Z,97289.88
2024-02-05T02:51:28.401Z,97288.4
2024-02-05T02:52:28.621Z,97289.09
2024-02-05T02:53:28.561Z,97287.83
2024-02-05T02:54:28.938Z,97288.3
2024-02-05T02:55:29.385Z,97287.8
2024-02-05T02:56:29.461Z,97287.8
2024-02-05T02:57:29.979Z,97286.28
2024-02-05T02:58:30.361Z,97285.52
2024-02-05T02:59:30.600Z,97287.23
2024-02-05T03:00:30.918Z,97288.05
2024-02-05T03:02:31.551Z,97287.46
2024-02-05T03:03:32.033Z,97293.14
2024-02-05T03:04:32.331Z,97289.13
2024-02-05T03:05:32.587Z,97297.61
2024-02-05T03:06:33.059Z,97292.51
2024-02-05T03:07:33.009Z,97286.66
2024-02-05T03:08:33.528Z,97292.2
2024-02-05T03:09:33.799Z,97289.04
2024-02-05T03:10:34.126Z,97287.22
2024-02-05T03:11:34.587Z,97292.44
2024-02-05T03:12:34.900Z,97283.56
2024-02-05T03:13:35.259Z,97285.92
2024-02-05T03:14:35.441Z,97290.42
2024-02-05T03:15:35.822Z,97288.45
2024-02-05T03:16:36.366Z,97290.09
2024-02-05T03:17:36.604Z,97287.09
2024-02-05T03:18:36.879Z,97292.48
2024-02-05T03:19:37.269Z,97293.52
2024-02-05T03:21:39.648Z,97291.63
2024-02-05T03:22:40.069Z,97292.12
2024-02-05T03:23:40.317Z,97286.96
2024-02-05T03:24:40.654Z,97285.14
2024-02-05T03:25:41.581Z,97282.53
2024-02-05T03:26:41.305Z,97282.66
2024-02-05T03:27:41.665Z,97286.85
2024-02-05T03:28:41.768Z,97286.12
2024-02-05T03:29:42.270Z,97284.97
2024-02-05T03:30:43.273Z,97280.81
2024-02-05T03:31:43.729Z,97279.14
2024-02-05T03:32:43.334Z,97279.5
2024-02-05T03:33:43.705Z,97280.75
2024-02-05T03:34:44.074Z,97277.41
2024-02-05T03:35:44.485Z,97276.16
2024-02-05T03:36:44.585Z,97279.77
2024-02-05T03:37:44.949Z,97281.75
2024-02-05T03:38:45.280Z,97276.61
2024-02-05T03:39:45.693Z,97282.19
2024-02-05T03:40:45.787Z,97275.38
2024-02-05T03:41:46.245Z,97277.09
2024-02-05T03:42:46.502Z,97274.09
2024-02-05T03:43:46.632Z,97277.12
2024-02-05T03:44:47.184Z,97274.31
2024-02-05T03:45:47.650Z,97273.98
2024-02-05T03:46:47.920Z,97271.23
2024-02-05T03:47:48.820Z,97266.86
2024-02-05T03:49:52.193Z,97268.03
2024-02-05T03:50:52.773Z,97265.51
2024-02-05T03:51:52.846Z,97261.47
2024-02-05T03:52:53.087Z,97264.47
2024-02-05T03:53:53.497Z,97263.05
2024-02-05T03:54:54.052Z,97258.36
2024-02-05T03:55:54.013Z,97260.7
2024-02-05T03:56:54.544Z,97258.61
2024-02-05T03:58:55.580Z,97257.65
2024-02-05T03:59:55.929Z,97256.5
2024-02-05T04:00:57.238Z,97257.11
2024-02-05T04:01:56.584Z,97250.92
2024-02-05T04:02:56.868Z,97257.66
2024-02-05T04:03:57.292Z,97252.82
2024-02-05T04:04:57.566Z,97256.04
2024-02-05T04:05:58.021Z,97257.37
2024-02-05T04:06:58.278Z,97260.45
2024-02-05T04:07:59.438Z,97258
2024-02-05T04:08:58.819Z,97254.59
2024-02-05T04:09:59.123Z,97255.55
2024-02-05T04:10:59.442Z,97254.95
2024-02-05T04:11:59.875Z,97251.27
2024-02-05T04:13:00.251Z,97248.55
2024-02-05T04:14:00.507Z,97254.94
2024-02-05T04:15:00.812Z,97253.46
2024-02-05T04:16:01.180Z,97254.82
2024-02-05T04:17:01.908Z,97256.03
2024-02-05T04:18:01.791Z,97260.33
2024-02-05T04:19:02.335Z,97260.68
2024-02-05T04:20:02.528Z,97260.84
2024-02-05T04:21:02.799Z,97257.35
2024-02-05T04:22:03.436Z,97257.66
2024-02-05T04:23:06.764Z,97257.64
2024-02-05T04:24:05.069Z,97254.72
2024-02-05T04:25:05.543Z,97250.69
2024-02-05T04:27:07.223Z,97250.8
2024-02-05T04:28:07.705Z,97252.14
2024-02-05T04:29:07.786Z,97252.86
2024-02-05T04:30:08.905Z,97252.48
2024-02-05T04:31:08.616Z,97253.2
2024-02-05T04:32:10.304Z,97255.45
2024-02-05T04:33:09.517Z,97250.52
2024-02-05T04:34:09.501Z,97251.69
2024-02-05T04:35:10.260Z,97250.54
2024-02-05T04:36:13.042Z,97247.34
2024-02-05T04:37:10.625Z,97246.65
2024-02-05T04:38:10.775Z,97246.24
2024-02-05T04:39:12.829Z,97249.17
2024-02-05T04:40:11.996Z,97242.95
2024-02-05T04:41:13.461Z,97250.62
2024-02-05T04:42:12.111Z,97244.31
2024-02-05T04:43:12.494Z,97248.7
2024-02-05T04:44:12.800Z,97251.64
2024-02-05T04:45:13.390Z,97247.3
2024-02-05T04:46:13.533Z,97249.78
2024-02-05T04:47:13.815Z,97251.55
2024-02-05T04:48:14.019Z,97247.19
2024-02-05T04:49:14.310Z,97244.28
2024-02-05T04:50:14.722Z,97243.83
2024-02-05T04:51:15.093Z,97245.59
2024-02-05T04:52:15.468Z,97244.47
2024-02-05T04:53:15.652Z,97242.77
2024-02-05T04:54:15.910Z,97242.87
2024-02-05T04:55:16.356Z,97245.83
2024-02-05T04:56:16.638Z,97248.31
2024-02-05T04:57:17.049Z,97247.01
2024-02-05T04:58:17.562Z,97241.25
2024-02-05T04:59:17.681Z,97245.16
2024-02-05T05:00:21.521Z,97249.2
2024-02-05T05:01:19.093Z,97248.54
2024-02-05T05:02:19.425Z,97247.15
2024-02-05T05:03:19.675Z,97240.9
2024-02-05T05:04:20.206Z,97234.95
2024-02-05T05:05:20.408Z,97243.06
2024-02-05T05:06:20.568Z,97239.57
2024-02-05T05:07:21.347Z,97237.59
2024-02-05T05:08:21.438Z,97240.75
2024-02-05T05:09:21.605Z,97239.98
2024-02-05T05:10:22.025Z,97237.45
2024-02-05T05:11:25.929Z,97238.89
2024-02-05T05:12:23.292Z,97232.37
2024-02-05T05:13:23.783Z,97234.62
2024-02-05T05:14:23.860Z,97236.97
2024-02-05T05:15:24.405Z,97237.27
2024-02-05T05:16:24.628Z,97244.05
2024-02-05T05:17:25.431Z,97239.25
2024-02-05T05:18:25.446Z,97245.77
2024-02-05T05:19:25.521Z,97244.16
2024-02-05T05:20:25.904Z,97244.38
2024-02-05T05:21:28.212Z,97243.47
2024-02-05T05:22:26.583Z,97243.06
2024-02-05T05:23:26.778Z,97243.14
2024-02-05T05:24:27.024Z,97241.17
2024-02-05T05:25:27.635Z,97241.38
2024-02-05T05:26:27.903Z,97244.78
2024-02-05T05:27:28.205Z,97243.2
2024-02-05T05:28:28.563Z,97243.36
2024-02-05T05:29:28.968Z,97246.16
2024-02-05T05:30:29.257Z,97247.22
2024-02-05T05:31:29.721Z,97240.34
2024-02-05T05:32:30.650Z,97245.37
2024-02-05T05:33:30.588Z,97242.06
2024-02-05T05:34:30.883Z,97244.58
2024-02-05T05:35:31.369Z,97247.05
2024-02-05T05:36:31.664Z,97246.59
2024-02-05T05:37:32.234Z,97248.28
2024-02-05T05:38:32.413Z,97248.62
2024-02-05T05:39:32.905Z,97245.38
2024-02-05T05:40:33.518Z,97244.19
2024-02-05T05:41:36.316Z,97243.81
2024-02-05T05:42:35.491Z,97244.75
2024-02-05T05:43:35.790Z,97248.12
2024-02-05T05:44:36.213Z,97243.81
2024-02-05T05:45:36.510Z,97238.66
2024-02-05T05:46:37.056Z,97246.19
2024-02-05T05:47:38.308Z,97243.12
2024-02-05T05:48:37.905Z,97246.2
2024-02-05T05:49:38.293Z,97241.39
2024-02-05T05:50:38.621Z,97247.2
2024-02-05T05:51:39.111Z,97251.55
2024-02-05T05:52:39.667Z,97254.77
2024-02-05T05:53:39.963Z,97254.3
2024-02-05T05:54:40.317Z,97253.56
2024-02-05T05:55:41.039Z,97256.81
2024-02-05T05:56:41.229Z,97251.38
2024-02-05T05:57:41.726Z,97254.01
2024-02-05T05:58:41.923Z,97257.28
2024-02-05T05:59:42.767Z,97254.78
2024-02-05T06:00:42.833Z,97258.23
2024-02-05T06:01:43.419Z,97255.64
2024-02-05T06:02:43.795Z,97257.42
2024-02-05T06:03:44.058Z,97261.55
2024-02-05T06:04:44.463Z,97260.51
2024-02-05T06:05:44.844Z,97259.65
2024-02-05T06:06:45.248Z,97258.44
2024-02-05T06:07:45.716Z,97258.36
2024-02-05T06:08:45.977Z,97261.27
2024-02-05T06:09:47.081Z,97260.9
2024-02-05T06:10:46.967Z,97262.88
2024-02-05T06:11:47.161Z,97262.62
2024-02-05T06:12:47.990Z,97264.72
2024-02-05T06:13:48.154Z,97266.06
2024-02-05T06:14:48.590Z,97264.85
2024-02-05T06:15:48.977Z,97265.95
2024-02-05T06:16:49.943Z,97263.22
2024-02-05T06:17:50.426Z,97264.8
2024-02-05T06:18:50.484Z,97267.12
2024-02-05T06:19:50.631Z,97266.11
2024-02-05T06:20:51.019Z,97265.77
2024-02-05T06:21:51.848Z,97271.27
2024-02-05T06:22:51.820Z,97267.03
2024-02-05T06:23:52.386Z,97267.77
2024-02-05T06:24:52.692Z,97271.16
2024-02-05T06:25:52.993Z,97269.78
2024-02-05T06:26:53.540Z,97271.37
2024-02-05T06:27:53.935Z,97276.77
2024-02-05T06:28:54.326Z,97275.09
2024-02-05T06:29:54.843Z,97275.84
2024-02-05T06:30:55.205Z,97283.2
2024-02-05T06:31:55.697Z,97280.53
2024-02-05T06:32:56.739Z,97283.51
2024-02-05T06:33:56.304Z,97278.53
2024-02-05T06:34:56.955Z,97279.18
2024-02-05T06:35:57.337Z,97281.34
2024-02-05T06:36:57.723Z,97280.03
2024-02-05T06:37:58.085Z,97281.56
2024-02-05T06:38:58.456Z,97281.66
2024-02-05T06:39:58.918Z,97277.81
2024-02-05T06:40:59.003Z,97279.38
2024-02-05T06:41:59.364Z,97276.91
2024-02-05T06:43:00.415Z,97278.03
2024-02-05T06:44:00.359Z,97281.68
2024-02-05T06:45:01.154Z,97281.62
2024-02-05T06:46:01.268Z,97285.5
2024-02-05T06:47:01.608Z,97286.8
2024-02-05T06:48:02.250Z,97288.34
2024-02-05T06:49:02.738Z,97290.97
2024-02-05T06:50:03.366Z,97285.92
2024-02-05T06:51:03.730Z,97283.58
2024-02-05T06:52:04.175Z,97287.42
2024-02-05T06:53:04.659Z,97286.67
2024-02-05T06:54:04.763Z,97284.91
2024-02-05T06:55:05.820Z,97283.39
2024-02-05T06:56:05.987Z,97281.02
2024-02-05T06:57:05.871Z,97283.7
2024-02-05T06:58:07.006Z,97283.41
2024-02-05T06:59:06.821Z,97283.62
2024-02-05T07:00:08.337Z,97282.33
2024-02-05T07:01:07.816Z,97281.17
2024-02-05T07:02:08.013Z,97282.23
2024-02-05T07:03:08.525Z,97285.91
2024-02-05T07:04:08.771Z,97285.02
2024-02-05T07:05:09.987Z,97287.05
2024-02-05T07:06:09.546Z,97285.66
2024-02-05T07:07:09.914Z,97285.97
2024-02-05T07:08:10.564Z,97286.89
2024-02-05T07:09:10.978Z,97284.53
2024-02-05T07:10:11.788Z,97281.4
2024-02-05T07:11:12.031Z,97280.56
2024-02-05T07:12:12.116Z,97279.2
2024-02-05T07:13:12.453Z,97279.16
2024-02-05T07:14:12.807Z,97280.44
2024-02-05T07:15:13.771Z,97281.02
2024-02-05T07:16:13.867Z,97276.45
2024-02-05T07:17:17.603Z,97275.05
2024-02-05T07:18:15.826Z,97276.45
2024-02-05T07:19:15.631Z,97276.31
2024-02-05T07:20:16.115Z,97276.22
2024-02-05T07:21:16.511Z,97279.02
2024-02-05T07:22:16.794Z,97282.94
2024-02-05T07:23:17.329Z,97288.91
2024-02-05T07:24:17.744Z,97290.34
2024-02-05T07:25:18.190Z,97297.83
2024-02-05T07:26:18.376Z,97294.12
2024-02-05T07:27:18.782Z,97297.97
2024-02-05T07:28:19.413Z,97294.94
2024-02-05T07:29:19.684Z,97295.52
2024-02-05T07:30:20.124Z,97298.59
2024-02-05T07:31:20.584Z,97298.52
2024-02-05T07:32:21.483Z,97296.38
2024-02-05T07:33:22.024Z,97295.8
2024-02-05T07:34:22.265Z,97295.5
2024-02-05T07:35:22.146Z,97300.36
2024-02-05T07:36:22.512Z,97300.83
2024-02-05T07:37:23.160Z,97301.03
2024-02-05T07:38:23.403Z,97307.79
2024-02-05T07:39:23.581Z,97306
2024-02-05T07:40:24.100Z,97306.42
2024-02-05T07:41:24.307Z,97300.47
2024-02-05T07:42:24.713Z,97309.49
2024-02-05T07:43:25.057Z,97304.78
2024-02-05T07:44:26.582Z,97303.7
2024-02-05T07:45:25.965Z,97303.6
2024-02-05T07:46:26.227Z,97305.23
2024-02-05T07:47:26.463Z,97305.44
2024-02-05T07:48:26.854Z,97303.53
2024-02-05T07:49:27.273Z,97309.14
2024-02-05T07:50:27.457Z,97308.84
2024-02-05T07:51:27.743Z,97308.86
2024-02-05T07:52:28.331Z,97305.05
2024-02-05T07:53:28.510Z,97307.65
2024-02-05T07:54:28.818Z,97310.65
2024-02-05T07:55:29.124Z,97308.31
2024-02-05T07:56:29.514Z,97313.91
2024-02-05T07:57:29.834Z,97318.14
2024-02-05T07:58:30.289Z,97319.7
2024-02-05T07:59:30.870Z,97320.24
2024-02-05T08:00:30.903Z,97323.42
2024-02-05T08:01:33.809Z,97326.81
2024-02-05T08:02:31.343Z,97315.95
2024-02-05T08:03:31.824Z,97323.16
2024-02-05T08:04:32.096Z,97322.09
2024-02-05T08:05:32.378Z,97325.41
2024-02-05T08:06:33.052Z,97325.8
2024-02-05T08:07:33.226Z,97320.23
2024-02-05T08:08:33.392Z,97323.44
2024-02-05T08:09:36.141Z,97320.44
2024-02-05T08:10:34.087Z,97319.42
2024-02-05T08:11:34.316Z,97322.84
2024-02-05T08:12:34.757Z,97324.27
2024-02-05T08:13:35.162Z,97322.5
2024-02-05T08:14:35.371Z,97326.91
2024-02-05T08:15:35.782Z,97322.46
2024-02-05T08:16:36.031Z,97322.18
2024-02-05T08:17:36.389Z,97325.05
2024-02-05T08:18:36.739Z,97329.39
2024-02-05T08:19:37.176Z,97329.12
2024-02-05T08:20:37.389Z,97328.02
2024-02-05T08:21:38.037Z,97329.25
2024-02-05T08:22:38.109Z,97330.73
2024-02-05T08:23:38.708Z,97328.16
2024-02-05T08:24:38.637Z,97331.56
2024-02-05T08:25:38.824Z,97332.27
2024-02-05T08:26:39.225Z,97329.56
2024-02-05T08:27:39.503Z,97338.14
2024-02-05T08:28:39.963Z,97328.56
2024-02-05T08:29:40.223Z,97330.65
2024-02-05T08:30:40.435Z,97333.33
2024-02-05T08:31:40.882Z,97329.74
2024-02-05T08:32:41.780Z,97333.31
2024-02-05T08:33:41.914Z,97329.33
2024-02-05T08:34:42.222Z,97330.59
2024-02-05T08:35:42.672Z,97335.16
2024-02-05T08:36:42.630Z,97339.06
2024-02-05T08:37:42.784Z,97332.73
2024-02-05T08:38:43.135Z,97332.01
2024-02-05T08:39:43.472Z,97336.21
2024-02-05T08:40:45.270Z,97336.81
2024-02-05T08:41:44.448Z,97336.3
2024-02-05T08:42:44.534Z,97344.3
2024-02-05T08:43:44.896Z,97339.68
2024-02-05T08:44:45.098Z,97338.5
2024-02-05T08:45:48.156Z,97341.53
2024-02-05T08:46:47.573Z,97342.3
2024-02-05T08:47:47.823Z,97342.77
2024-02-05T08:48:48.288Z,97338.36
2024-02-05T08:49:49.750Z,97332.21
2024-02-05T08:50:48.831Z,97337.61
2024-02-05T08:51:49.275Z,97339.98
2024-02-05T08:52:49.749Z,97336.92
2024-02-05T08:53:49.867Z,97338.73
2024-02-05T08:54:50.491Z,97336.64
2024-02-05T08:55:50.529Z,97335.22
2024-02-05T08:56:50.691Z,97335.91
2024-02-05T08:57:51.090Z,97336.66
2024-02-05T08:58:51.651Z,97337.77
2024-02-05T08:59:52.080Z,97339.05
2024-02-05T09:00:52.127Z,97342.64
2024-02-05T09:01:52.650Z,97342.42
2024-02-05T09:02:53.888Z,97342.41
2024-02-05T09:03:53.506Z,97341.91
2024-02-05T09:04:53.443Z,97345.08
2024-02-05T09:05:53.954Z,97346.91
2024-02-05T09:06:54.266Z,97351.09
2024-02-05T09:07:54.625Z,97351.98
2024-02-05T09:08:54.882Z,97350.84
2024-02-05T09:09:55.134Z,97343.72
2024-02-05T09:10:55.928Z,97348.2
2024-02-05T09:12:05.601Z,97353.08
2024-02-05T09:12:59.762Z,97357.16
2024-02-05T09:14:00.180Z,97359.21
2024-02-05T09:15:01.168Z,97355.41
2024-02-05T09:16:01.061Z,97357.73
2024-02-05T09:17:01.187Z,97357.99
2024-02-05T09:18:01.437Z,97359.05
2024-02-05T09:19:02.931Z,97360.75
2024-02-05T09:20:02.540Z,97356.84
2024-02-05T09:21:02.444Z,97365.59
2024-02-05T09:22:02.946Z,97358.23
2024-02-05T09:23:03.062Z,97356.83
2024-02-05T09:24:04.111Z,97357.72
2024-02-05T09:25:04.322Z,97359.38
2024-02-05T09:26:04.743Z,97361.48
2024-02-05T09:27:04.920Z,97358.34
2024-02-05T09:28:05.389Z,97364.28
2024-02-05T09:29:05.177Z,97359.86
2024-02-05T09:30:10.177Z,97363.62
2024-02-05T09:31:12.561Z,97365.58
2024-02-05T09:32:10.584Z,97364.56
2024-02-05T09:33:10.911Z,97372.33
2024-02-05T09:34:14.652Z,97369.88
2024-02-05T09:35:12.205Z,97367.56
2024-02-05T09:36:12.635Z,97367.95
2024-02-05T09:37:12.902Z,97370.02
2024-02-05T09:38:13.194Z,97369.88
2024-02-05T09:39:13.724Z,97366.22
2024-02-05T09:40:14.176Z,97370.48
2024-02-05T09:41:21.243Z,97373.38
2024-02-05T09:42:18.866Z,97369.37
2024-02-05T09:43:21.830Z,97371.59
2024-02-05T09:44:21.748Z,97366.88
2024-02-05T09:45:26.711Z,97367.55
2024-02-05T09:46:25.196Z,97363.95
2024-02-05T09:47:28.393Z,97366.59
2024-02-05T09:48:33.479Z,97370.56
2024-02-05T09:49:28.147Z,97365.11
2024-02-05T09:50:29.003Z,97364
2024-02-05T09:51:33.039Z,97368.11
2024-02-05T09:52:30.608Z,97368.03
2024-02-05T09:53:31.121Z,97369.37
2024-02-05T09:54:31.795Z,97363.89
2024-02-05T09:55:31.884Z,97369.75
2024-02-05T09:56:35.819Z,97374.16
2024-02-05T09:57:36.799Z,97371.5
2024-02-05T09:58:34.402Z,97366.8
2024-02-05T09:59:34.588Z,97374.41
2024-02-05T10:00:35.034Z,97370.02
2024-02-05T10:01:35.913Z,97376.62
2024-02-05T10:02:36.216Z,97373.85
2024-02-05T10:03:36.852Z,97372.67
2024-02-05T10:04:40.768Z,97371.81
2024-02-05T10:05:38.876Z,97369.38
2024-02-05T10:06:40.402Z,97378.42
2024-02-05T10:07:43.253Z,97377.45
2024-02-05T10:08:42.782Z,97376.69
2024-02-05T10:09:41.979Z,97381.27
2024-02-05T10:10:45.434Z,97372.44
2024-02-05T10:11:50.825Z,97381.28
2024-02-05T10:12:46.109Z,97377.98
2024-02-05T10:13:43.642Z,97383.57
2024-02-05T10:14:44.361Z,97376.2
2024-02-05T10:15:44.308Z,97379.81
2024-02-05T10:16:44.675Z,97383.91
2024-02-05T10:17:45.120Z,97380.98
2024-02-05T10:18:45.503Z,97378.55
2024-02-05T10:19:45.955Z,97382.27
2024-02-05T10:20:48.293Z,97379.96
2024-02-05T10:21:46.278Z,97378.85
2024-02-05T10:22:47.601Z,97383.92
2024-02-05T10:23:56.237Z,97379.39
2024-02-05T10:24:50.614Z,97382.3
2024-02-05T10:25:49.141Z,97382.16
2024-02-05T10:26:49.856Z,97380.38
2024-02-05T10:27:49.830Z,97382.09
2024-02-05T10:28:50.415Z,97375.81
2024-02-05T10:30:02.305Z,97376.52
2024-02-05T10:30:50.897Z,97377.59
2024-02-05T10:31:51.733Z,97373.81
2024-02-05T10:33:54.373Z,97373.22
2024-02-05T10:34:54.045Z,97377.82
2024-02-05T10:35:59.831Z,97377.93
2024-02-05T10:39:05.941Z,97379.52
2024-02-05T10:40:10.499Z,97380.61
2024-02-05T10:41:11.664Z,97384.56
2024-02-05T10:42:09.265Z,97380.36
2024-02-05T10:43:09.429Z,97385.59
2024-02-05T10:44:09.746Z,97380.02
2024-02-05T10:45:11.535Z,97384.77
2024-02-05T10:46:10.704Z,97384.9
2024-02-05T10:47:11.025Z,97383.51
2024-02-05T10:48:11.416Z,97382.85
2024-02-05T10:49:11.591Z,97386.66
2024-02-05T10:50:12.324Z,97384.12
2024-02-05T10:51:14.333Z,97381.56
2024-02-05T10:52:16.315Z,97384.59
2024-02-05T10:53:14.209Z,97380.97
2024-02-05T10:54:14.528Z,97381.52
2024-02-05T10:55:15.033Z,97387
2024-02-05T10:56:17.214Z,97387.03
2024-02-05T10:57:18.944Z,97389.31
2024-02-05T10:58:18.120Z,97387.75
2024-02-05T10:59:16.846Z,97388.34
2024-02-05T11:00:17.958Z,97391.88
2024-02-05T11:01:20.018Z,97390.85
2024-02-05T11:02:26.376Z,97395.1
2024-02-05T11:03:22.977Z,97395.64
2024-02-05T11:04:20.994Z,97398.45
2024-02-05T11:05:23.645Z,97395.02
2024-02-05T11:06:22.655Z,97399.88
2024-02-05T11:07:25.849Z,97397.66
2024-02-05T11:08:25.887Z,97400.27
2024-02-05T11:09:25.260Z,97398.62
2024-02-05T11:10:25.923Z,97404.2
2024-02-05T11:11:24.571Z,97403.3
2024-02-05T11:12:28.783Z,97405.67
2024-02-05T11:13:33.132Z,97400.77
2024-02-05T11:14:32.506Z,97404.61
2024-02-05T11:15:35.586Z,97405.98
2024-02-05T11:16:34.375Z,97406.64
2024-02-05T11:17:38.106Z,97404.64
2024-02-05T11:18:41.111Z,97406.42
2024-02-05T11:19:40.370Z,97409.08
2024-02-05T11:20:39.888Z,97407.83
2024-02-05T11:22:43.739Z,97406.45
2024-02-05T11:23:43.073Z,97413.52
2024-02-05T11:24:41.961Z,97410.82
2024-02-05T11:25:42.699Z,97422.39
2024-02-05T11:26:43.209Z,97423.05
2024-02-05T11:27:44.188Z,97417.41
2024-02-05T11:28:42.905Z,97419.23
2024-02-05T11:29:43.859Z,97417.71
2024-02-05T11:30:45.080Z,97416.27
2024-02-05T11:31:47.302Z,97419.89
2024-02-05T11:32:44.930Z,97422.83
2024-02-05T11:33:47.836Z,97416.61
2024-02-05T11:34:45.735Z,97415.9
2024-02-05T11:35:51.769Z,97419.05
2024-02-05T11:36:49.487Z,97414.53
2024-02-05T11:37:50.233Z,97417.04
2024-02-05T11:38:50.143Z,97418.62
2024-02-05T11:39:50.394Z,97416.74
2024-02-05T11:40:52.180Z,97421.98
2024-02-05T11:41:51.097Z,97426.18
2024-02-05T11:44:56.128Z,97428.77
2024-02-05T11:45:56.049Z,97422.62
2024-02-05T11:46:55.763Z,97427.46
2024-02-05T11:47:57.094Z,97424.55
2024-02-05T11:48:56.503Z,97423.45
2024-02-05T11:49:56.848Z,97428.36
2024-02-05T11:50:59.637Z,97428.62
2024-02-05T11:51:57.568Z,97424.23
2024-02-05T11:52:57.802Z,97425.38
2024-02-05T11:53:59.566Z,97425.46
2024-02-05T11:54:58.387Z,97429.12
2024-02-05T11:55:58.765Z,97432.01
2024-02-05T11:56:59.814Z,97430.16
2024-02-05T11:57:59.428Z,97427.48
2024-02-05T11:58:59.900Z,97434.25
2024-02-05T12:00:00.119Z,97432.77
2024-02-05T12:01:01.309Z,97432.55
2024-02-05T12:02:01.982Z,97430.31
2024-02-05T12:03:01.792Z,97439.08
2024-02-05T12:04:01.684Z,97442.08
2024-02-05T12:05:02.051Z,97440.36
2024-02-05T12:06:02.778Z,97437.91
2024-02-05T12:07:03.677Z,97443.71
2024-02-05T12:08:03.163Z,97439.66
2024-02-05T12:09:03.697Z,97442.19
2024-02-05T12:10:03.929Z,97444.02